Time;durP1;ratioP1;P1;durP2;ratioP2;P2;SDS_P1;SDS_P2;PMS_P1;PMS_P2;Temp;Humidity;BMP_temperature;BMP_pressure;BME280_temperature;BME280_humidity;BME280_pressure;Samples;Min_cycle;Max_cycle;Signal;HPM_P1;HPM_P2
2021/10/14 00:01:14;;;;;;;18.05;6.22;;;;;;;9.36;100.00;102707.25;5222031;28;20029;-75
2021/10/14 00:03:44;;;;;;;19.83;6.30;;;;;;;9.37;100.00;102700.06;5254525;28;20032;-75
2021/10/14 00:06:15;;;;;;;19.15;6.50;;;;;;;9.37;100.00;102705.41;5222263;28;20021;-74
2021/10/14 00:08:45;;;;;;;17.20;6.72;;;;;;;9.34;100.00;102698.47;5222179;28;20082;-75
2021/10/14 00:11:16;;;;;;;15.82;6.10;;;;;;;9.36;100.00;102696.53;5221774;28;20025;-74
2021/10/14 00:13:46;;;;;;;13.75;6.90;;;;;;;9.36;100.00;102699.19;5222086;28;20436;-74
2021/10/14 00:16:17;;;;;;;14.73;5.90;;;;;;;9.36;100.00;102696.53;5222056;28;20025;-74
2021/10/14 00:18:47;;;;;;;18.85;6.43;;;;;;;9.39;100.00;102695.44;5222058;28;20494;-73
2021/10/14 00:21:18;;;;;;;13.52;6.78;;;;;;;9.39;100.00;102696.31;5221799;28;20102;-73
2021/10/14 00:23:48;;;;;;;18.05;6.50;;;;;;;9.38;100.00;102697.25;5221843;28;20021;-73
2021/10/14 00:26:19;;;;;;;17.20;6.13;;;;;;;9.36;100.00;102693.84;5222033;28;20021;-73
2021/10/14 00:28:49;;;;;;;17.90;6.20;;;;;;;9.36;100.00;102693.84;5221806;28;20029;-74
2021/10/14 00:31:20;;;;;;;22.48;7.00;;;;;;;9.33;100.00;102692.22;5221824;28;20064;-73
2021/10/14 00:33:51;;;;;;;15.63;5.90;;;;;;;9.35;100.00;102697.50;5221936;28;20020;-73
2021/10/14 00:36:21;;;;;;;18.92;5.97;;;;;;;9.36;100.00;102698.34;5221675;28;20139;-73
2021/10/14 00:38:52;;;;;;;13.38;6.32;;;;;;;9.35;100.00;102700.19;5221278;28;20183;-74
2021/10/14 00:41:22;;;;;;;14.93;6.50;;;;;;;9.37;100.00;102700.06;5221825;28;20110;-74
2021/10/14 00:43:56;;;;;;;17.45;6.00;;;;;;;9.35;100.00;102702.84;5221596;28;20029;-73
2021/10/14 00:46:26;;;;;;;14.52;6.43;;;;;;;9.36;100.00;102691.16;5221785;28;21089;-73
2021/10/14 00:48:57;;;;;;;15.98;5.80;;;;;;;9.38;100.00;102688.38;5220915;28;20024;-73
2021/10/14 00:51:27;;;;;;;14.48;6.43;;;;;;;9.38;100.00;102686.53;5222118;28;20741;-74
2021/10/14 00:53:59;;;;;;;14.25;5.95;;;;;;;9.41;100.00;102685.47;5221644;28;20036;-74
2021/10/14 00:56:29;;;;;;;15.90;6.57;;;;;;;9.43;100.00;102688.88;5221651;28;20057;-75
2021/10/14 00:59:01;;;;;;;14.25;6.18;;;;;;;9.43;100.00;102687.06;5221777;28;20118;-73
2021/10/14 01:01:32;;;;;;;19.95;6.75;;;;;;;9.46;100.00;102683.31;5221383;28;20178;-73
2021/10/14 01:04:05;;;;;;;11.60;6.05;;;;;;;9.48;100.00;102681.34;5220814;28;20028;-75
2021/10/14 01:06:35;;;;;;;17.65;7.35;;;;;;;9.49;100.00;102683.09;5221890;28;20457;-74
2021/10/14 01:09:06;;;;;;;13.25;6.50;;;;;;;9.50;100.00;102671.41;5221962;28;20262;-74
2021/10/14 01:11:38;;;;;;;12.68;6.25;;;;;;;9.49;100.00;102669.69;5225900;28;20086;-74
2021/10/14 01:14:09;;;;;;;18.10;7.32;;;;;;;9.52;100.00;102674.81;5226018;28;20017;-74
2021/10/14 01:16:47;;;;;;;15.55;5.93;;;;;;;9.52;100.00;102667.63;5225586;28;20370;-73
2021/10/14 01:19:39;;;;;;;15.73;5.53;;;;;;;9.54;100.00;102663.03;5225523;28;20025;-74
2021/10/14 01:22:28;;;;;;;17.48;6.35;;;;;;;9.54;100.00;102656.81;5225811;28;20032;-74
2021/10/14 01:25:19;;;;;;;15.80;5.93;;;;;;;9.51;100.00;102657.03;5224778;28;20086;-74
2021/10/14 01:27:49;;;;;;;20.77;6.65;;;;;;;9.50;100.00;102652.63;5225858;28;20032;-75
2021/10/14 01:30:30;;;;;;;17.42;6.57;;;;;;;9.51;100.00;102647.16;5225321;28;20424;-74
2021/10/14 01:33:01;;;;;;;14.90;6.05;;;;;;;9.48;100.00;102652.72;5225449;28;20071;-73
2021/10/14 01:35:31;;;;;;;23.17;6.25;;;;;;;9.49;100.00;102654.47;5224384;28;20386;-75
2021/10/14 01:38:02;;;;;;;15.07;6.43;;;;;;;9.47;100.00;102652.84;5225529;28;20039;-74
2021/10/14 01:40:32;;;;;;;11.60;5.85;;;;;;;9.48;100.00;102647.38;5225023;28;20108;-74
2021/10/14 01:43:03;;;;;;;22.63;8.27;;;;;;;9.50;100.00;102639.25;5224762;28;20375;-74
2021/10/14 01:45:34;;;;;;;20.17;6.10;;;;;;;9.50;100.00;102631.22;5225067;28;20103;-74
2021/10/14 01:48:18;;;;;;;18.55;6.65;;;;;;;9.50;100.00;102631.22;5225457;28;20017;-75
2021/10/14 01:51:00;;;;;;;14.43;6.47;;;;;;;9.50;100.00;102642.78;5225115;28;20029;-74
2021/10/14 01:53:31;;;;;;;16.30;6.78;;;;;;;9.49;100.00;102632.19;5224735;28;20033;-75
2021/10/14 01:56:02;;;;;;;15.10;6.32;;;;;;;9.50;100.00;102625.84;5225210;28;20032;-75
2021/10/14 01:58:32;;;;;;;17.02;6.03;;;;;;;9.51;100.00;102625.72;5224927;28;20108;-75
2021/10/14 02:01:03;;;;;;;15.90;6.15;;;;;;;9.50;100.00;102623.16;5224842;28;20021;-75
2021/10/14 02:03:34;;;;;;;16.55;6.10;;;;;;;9.51;100.00;102616.84;5224745;28;20021;-75
2021/10/14 02:06:04;;;;;;;14.85;6.53;;;;;;;9.53;100.00;102620.25;5224628;28;20052;-73
2021/10/14 02:08:35;;;;;;;17.02;6.57;;;;;;;9.51;100.00;102615.00;5225002;28;20466;-73
2021/10/14 02:11:06;;;;;;;19.67;6.18;;;;;;;9.51;100.00;102612.31;5224863;28;20017;-72
2021/10/14 02:13:36;;;;;;;17.35;6.07;;;;;;;9.51;100.00;102615.00;5224840;28;20025;-73
2021/10/14 02:16:07;;;;;;;15.93;6.53;;;;;;;9.52;100.00;102606.00;5224517;28;20025;-73
2021/10/14 02:18:38;;;;;;;18.27;6.40;;;;;;;9.53;100.00;102612.19;5224672;28;20025;-75
2021/10/14 02:21:08;;;;;;;18.55;5.78;;;;;;;9.52;100.00;102607.81;5223199;28;20112;-75
2021/10/14 02:23:39;;;;;;;15.75;6.38;;;;;;;9.52;100.00;102599.78;5224563;28;20098;-73
2021/10/14 02:26:09;;;;;;;17.10;6.25;;;;;;;9.51;100.00;102606.13;5224594;28;20104;-75
2021/10/14 02:28:40;;;;;;;11.10;5.75;;;;;;;9.50;100.00;102607.94;5224118;28;20025;-74
2021/10/14 02:31:10;;;;;;;12.20;6.20;;;;;;;9.53;100.00;102606.84;5223963;28;20035;-74
2021/10/14 02:33:41;;;;;;;16.15;6.10;;;;;;;9.55;100.00;102607.59;5224187;28;20482;-73
2021/10/14 02:36:11;;;;;;;14.65;6.03;;;;;;;9.53;100.00;102607.69;5224040;28;20398;-73
2021/10/14 02:38:42;;;;;;;13.80;6.00;;;;;;;9.53;100.00;102601.47;5224052;28;20025;-73
2021/10/14 02:41:12;;;;;;;14.57;6.07;;;;;;;9.50;100.00;102597.22;5223469;28;20048;-72
2021/10/14 02:43:43;;;;;;;15.98;6.28;;;;;;;9.50;100.00;102597.22;5223742;28;20087;-72
2021/10/14 02:46:13;;;;;;;14.80;6.65;;;;;;;9.51;100.00;102604.28;5223799;28;20029;-74
2021/10/14 02:48:44;;;;;;;27.27;6.97;;;;;;;9.51;100.00;102598.94;5223732;28;20107;-73
2021/10/14 02:51:14;;;;;;;15.48;6.00;;;;;;;9.50;100.00;102601.75;5223948;28;20028;-73
2021/10/14 02:53:45;;;;;;;13.20;6.45;;;;;;;9.52;100.00;102594.44;5223291;28;20136;-75
2021/10/14 02:56:15;;;;;;;16.83;5.97;;;;;;;9.51;100.00;102601.59;5223934;28;20496;-75
2021/10/14 02:58:46;;;;;;;16.45;6.57;;;;;;;9.51;100.00;102603.44;5224021;28;20104;-75
2021/10/14 03:01:16;;;;;;;14.20;6.30;;;;;;;9.53;100.00;102602.34;5223658;28;20028;-75
2021/10/14 03:03:47;;;;;;;15.50;6.20;;;;;;;9.54;100.00;102603.22;5223552;28;20477;-74
2021/10/14 03:06:17;;;;;;;16.27;5.93;;;;;;;9.54;100.00;102604.06;5223270;28;20025;-73
2021/10/14 03:08:48;;;;;;;17.48;5.70;;;;;;;9.59;100.00;102603.72;5223487;28;20478;-73
2021/10/14 03:11:18;;;;;;;15.75;5.63;;;;;;;9.60;100.00;102600.06;5223296;28;20021;-74
2021/10/14 03:13:49;;;;;;;18.27;6.75;;;;;;;9.60;100.00;102600.91;5223282;28;20021;-73
2021/10/14 03:16:19;;;;;;;17.00;5.78;;;;;;;9.62;100.00;102608.81;5223289;28;20371;-73
2021/10/14 03:18:51;;;;;;;16.10;6.50;;;;;;;9.64;100.00;102604.22;5222785;28;20033;-73
2021/10/14 03:21:22;;;;;;;19.63;5.80;;;;;;;9.66;100.00;102604.09;5223445;28;20021;-72
2021/10/14 03:23:53;;;;;;;17.27;5.82;;;;;;;9.66;100.00;102598.72;5223098;28;20604;-74
2021/10/14 03:26:23;;;;;;;20.02;6.00;;;;;;;9.67;100.00;102603.97;5221899;28;20032;-74
2021/10/14 03:28:56;;;;;;;13.38;6.07;;;;;;;9.69;100.00;102599.38;5222790;28;20024;-74
2021/10/14 03:31:26;;;;;;;15.05;6.15;;;;;;;9.68;100.00;102607.50;5222680;28;20031;-73
2021/10/14 03:33:57;;;;;;;16.55;5.72;;;;;;;9.67;100.00;102603.13;5222553;28;20382;-73
2021/10/14 03:36:27;;;;;;;18.00;6.28;;;;;;;9.65;100.00;102611.28;5223280;28;20482;-73
2021/10/14 03:38:57;;;;;;;17.95;8.77;;;;;;;9.66;100.00;102609.47;5222641;28;20021;-73
2021/10/14 03:41:28;;;;;;;16.02;6.55;;;;;;;9.65;100.00;102610.44;5223157;28;20025;-74
2021/10/14 03:43:59;;;;;;;17.90;10.57;;;;;;;9.64;100.00;102611.38;5222468;28;20474;-74
2021/10/14 03:46:29;;;;;;;16.65;5.95;;;;;;;9.64;100.00;102611.38;5222863;28;20513;-74
2021/10/14 03:48:59;;;;;;;18.50;7.72;;;;;;;9.63;100.00;102609.69;5222531;28;20032;-74
2021/10/14 03:51:30;;;;;;;20.92;10.95;;;;;;;9.65;100.00;102611.28;5223379;28;20382;-75
2021/10/14 03:54:01;;;;;;;20.10;10.00;;;;;;;9.64;100.00;102604.22;5222425;28;20085;-74
2021/10/14 03:56:31;;;;;;;11.85;5.15;;;;;;;9.66;100.00;102604.09;5222195;28;20025;-73
2021/10/14 03:59:02;;;;;;;23.02;7.68;;;;;;;9.68;100.00;102607.50;5222268;28;20031;-73
2021/10/14 04:01:32;;;;;;;18.83;8.73;;;;;;;9.68;100.00;102615.53;5222500;28;20025;-74
2021/10/14 04:04:03;;;;;;;18.42;11.55;;;;;;;9.73;100.00;102613.38;5222452;28;20144;-73
2021/10/14 04:06:34;;;;;;;12.93;6.63;;;;;;;9.72;100.00;102612.50;5221944;28;20028;-74
2021/10/14 04:09:04;;;;;;;14.30;6.35;;;;;;;9.72;100.00;102617.03;5221960;28;20029;-74
2021/10/14 04:11:35;;;;;;;19.08;6.30;;;;;;;9.71;100.00;102612.63;5222717;28;20110;-74
2021/10/14 04:14:05;;;;;;;14.15;5.72;;;;;;;9.71;100.00;102615.31;5222225;28;20028;-74
2021/10/14 04:16:35;;;;;;;24.35;10.65;;;;;;;9.72;100.00;102608.97;5222166;28;20027;-73
2021/10/14 04:19:07;;;;;;;20.10;6.20;;;;;;;9.75;100.00;102614.13;5221641;28;20031;-74
2021/10/14 04:21:38;;;;;;;15.27;6.47;;;;;;;9.76;100.00;102611.31;5222174;28;20035;-73
2021/10/14 04:24:09;;;;;;;12.15;6.57;;;;;;;9.76;100.00;102613.13;5222426;28;20132;-74
2021/10/14 04:26:39;;;;;;;14.07;7.03;;;;;;;9.76;100.00;102613.13;5222506;28;20469;-73
2021/10/14 04:29:10;;;;;;;21.55;7.15;;;;;;;9.76;100.00;102610.47;5221751;28;20027;-74
2021/10/14 04:31:41;;;;;;;20.35;7.60;;;;;;;9.79;100.00;102610.22;5222339;28;20103;-72
2021/10/14 04:34:11;;;;;;;17.17;7.22;;;;;;;9.83;100.00;102606.31;5222210;28;20033;-72
2021/10/14 04:36:42;;;;;;;17.17;6.93;;;;;;;9.82;100.00;102600.09;5222095;28;20025;-73
2021/10/14 04:39:13;;;;;;;24.65;8.45;;;;;;;9.81;100.00;102601.09;5221952;28;20029;-74
2021/10/14 04:41:44;;;;;;;15.52;7.43;;;;;;;9.81;100.00;102600.22;5221910;28;20049;-74
2021/10/14 04:44:14;;;;;;;17.95;7.93;;;;;;;9.82;100.00;102601.94;5222388;28;20068;-73
2021/10/14 04:46:45;;;;;;;28.35;10.63;;;;;;;9.82;100.00;102605.47;5226311;28;20052;-73
2021/10/14 04:49:16;;;;;;;16.00;7.35;;;;;;;9.80;100.00;102596.69;5226033;28;20027;-74
2021/10/14 04:51:47;;;;;;;18.95;7.68;;;;;;;9.79;100.00;102599.50;5226153;28;20178;-75
2021/10/14 04:54:17;;;;;;;16.73;10.68;;;;;;;9.80;100.00;102599.38;5226063;28;20112;-75
2021/10/14 04:56:48;;;;;;;21.00;7.78;;;;;;;9.79;100.00;102599.50;5225579;28;20029;-74
2021/10/14 04:59:18;;;;;;;16.90;7.35;;;;;;;9.77;100.00;102596.94;5226035;28;20021;-73
2021/10/14 05:01:49;;;;;;;27.17;8.50;;;;;;;9.76;100.00;102595.22;5225896;28;20108;-74
2021/10/14 05:04:19;;;;;;;14.27;7.63;;;;;;;9.76;100.00;102600.59;5226040;28;20033;-74
2021/10/14 05:06:50;;;;;;;23.95;8.30;;;;;;;9.77;100.00;102601.44;5225707;28;20104;-74
2021/10/14 05:09:20;;;;;;;22.52;8.10;;;;;;;9.77;100.00;102601.44;5225440;28;20021;-74
2021/10/14 05:11:51;;;;;;;32.53;15.57;;;;;;;9.75;100.00;102590.00;5225760;28;20112;-74
2021/10/14 05:14:21;;;;;;;23.88;9.82;;;;;;;9.76;100.00;102594.38;5226161;28;20099;-73
2021/10/14 05:16:52;;;;;;;24.20;8.82;;;;;;;9.75;100.00;102590.84;5225490;28;20036;-75
2021/10/14 05:19:22;;;;;;;23.00;9.20;;;;;;;9.74;100.00;102578.44;5223950;28;20056;-74
2021/10/14 05:21:53;;;;;;;23.35;9.43;;;;;;;9.74;100.00;102591.81;5225366;28;20031;-73
2021/10/14 05:24:24;;;;;;;26.83;9.27;;;;;;;9.76;100.00;102584.50;5225685;28;20099;-74
2021/10/14 05:26:54;;;;;;;22.88;9.18;;;;;;;9.77;100.00;102582.69;5225497;28;20025;-75
2021/10/14 05:29:25;;;;;;;28.90;10.82;;;;;;;9.77;100.00;102585.34;5225234;28;20059;-74
2021/10/14 05:31:55;;;;;;;21.40;10.07;;;;;;;9.80;100.00;102585.97;5225870;28;20439;-74
2021/10/14 05:34:26;;;;;;;27.40;11.07;;;;;;;9.79;100.00;102592.31;5225006;28;20025;-74
2021/10/14 05:36:56;;;;;;;26.98;11.50;;;;;;;9.78;100.00;102582.56;5224499;28;20486;-73
2021/10/14 05:39:27;;;;;;;25.70;11.35;;;;;;;9.78;100.00;102590.59;5224846;28;20029;-74
2021/10/14 05:41:57;;;;;;;24.10;10.70;;;;;;;9.77;100.00;102591.56;5225184;28;20060;-74
2021/10/14 05:44:28;;;;;;;23.25;10.57;;;;;;;9.78;100.00;102587.06;5224862;28;20035;-74
2021/10/14 05:46:58;;;;;;;31.08;11.00;;;;;;;9.77;100.00;102594.25;5224910;28;20559;-72
2021/10/14 05:49:29;;;;;;;21.63;10.35;;;;;;;9.77;100.00;102588.88;5224940;28;20043;-73
2021/10/14 05:52:00;;;;;;;28.92;11.98;;;;;;;9.78;100.00;102598.63;5225669;28;20111;-72
2021/10/14 05:54:30;;;;;;;27.60;11.73;;;;;;;9.77;100.00;102598.75;5224878;28;20029;-72
2021/10/14 05:57:01;;;;;;;29.42;11.65;;;;;;;9.78;100.00;102589.75;5224179;28;20502;-73
2021/10/14 05:59:32;;;;;;;29.90;11.90;;;;;;;9.78;100.00;102592.41;5225041;28;20013;-74
2021/10/14 06:02:02;;;;;;;34.47;12.98;;;;;;;9.76;100.00;102580.97;5224861;28;20451;-74
2021/10/14 06:04:32;;;;;;;35.80;14.05;;;;;;;9.76;100.00;102587.19;5224770;28;20522;-75
2021/10/14 06:07:03;;;;;;;27.15;12.88;;;;;;;9.77;100.00;102590.72;5224781;28;20321;-75
2021/10/14 06:09:33;;;;;;;26.92;13.30;;;;;;;9.77;100.00;102586.22;5223960;28;20025;-76
2021/10/14 06:12:04;;;;;;;32.35;12.38;;;;;;;9.77;100.00;102593.41;5224607;28;20024;-76
2021/10/14 06:14:35;;;;;;;28.92;13.65;;;;;;;9.78;100.00;102579.03;5224581;28;20035;-75
2021/10/14 06:17:05;;;;;;;33.00;13.57;;;;;;;9.79;100.00;102583.44;5224805;28;20124;-76
2021/10/14 06:19:36;;;;;;;32.65;14.48;;;;;;;9.81;100.00;102573.44;5223904;28;20029;-74
2021/10/14 06:22:06;;;;;;;30.75;14.30;;;;;;;9.83;100.00;102575.00;5224852;28;20025;-74
2021/10/14 06:24:37;;;;;;;32.22;14.77;;;;;;;9.84;100.00;102578.56;5224444;28;20525;-74
2021/10/14 06:27:07;;;;;;;28.20;14.40;;;;;;;9.85;100.00;102580.28;5224918;28;20020;-74
2021/10/14 06:29:38;;;;;;;37.25;15.30;;;;;;;9.87;100.00;102583.66;5224088;28;20723;-74
2021/10/14 06:32:09;;;;;;;33.03;12.85;;;;;;;9.88;100.00;102580.00;5224322;28;20478;-73
2021/10/14 06:34:40;;;;;;;32.17;13.68;;;;;;;9.93;100.00;102572.47;5218620;28;20500;-73
2021/10/14 06:37:11;;;;;;;29.90;14.18;;;;;;;9.95;100.00;102581.25;5221083;28;20032;-71
2021/10/14 06:39:41;;;;;;;32.25;12.98;;;;;;;9.98;100.00;102574.78;5221384;28;20370;-72
2021/10/14 06:42:12;;;;;;;31.88;12.65;;;;;;;10.01;100.00;102578.09;5221698;28;20033;-72
2021/10/14 06:44:42;;;;;;;31.02;16.38;;;;;;;10.03;100.00;102578.81;5221591;28;20028;-72
2021/10/14 06:47:13;;;;;;;97.55;46.92;;;;;;;10.06;100.00;102575.03;5220780;28;20122;-72
2021/10/14 06:49:43;;;;;;;41.58;15.02;;;;;;;10.05;100.00;102576.03;5219564;28;20052;-73
2021/10/14 06:52:15;;;;;;;28.38;13.65;;;;;;;10.04;100.00;102575.19;5220935;28;20029;-72
2021/10/14 06:54:46;;;;;;;28.45;13.07;;;;;;;10.04;100.00;102576.97;5221250;28;20131;-72
2021/10/14 06:57:17;;;;;;;24.00;13.60;;;;;;;10.03;100.00;102570.75;5220930;28;20067;-73
2021/10/14 06:59:47;;;;;;;25.60;13.02;;;;;;;10.01;100.00;102572.72;5220437;28;20032;-72
2021/10/14 07:02:18;;;;;;;27.45;13.55;;;;;;;9.98;100.00;102577.47;5203138;28;20021;-73
2021/10/14 07:04:48;;;;;;;35.38;13.88;;;;;;;9.97;100.00;102576.63;5220845;28;20025;-72
2021/10/14 07:07:19;;;;;;;26.33;12.23;;;;;;;10.01;100.00;102571.88;5219034;28;20032;-72
2021/10/14 07:09:49;;;;;;;29.65;14.30;;;;;;;10.10;100.00;102574.69;5220201;28;20020;-72
2021/10/14 07:12:27;;;;;;;24.27;12.18;;;;;;;10.22;100.00;102582.72;5221214;28;20134;-72
2021/10/14 07:14:57;;;;;;;44.45;12.50;;;;;;;10.35;100.00;102575.44;5221771;28;20406;-73
2021/10/14 07:17:28;;;;;;;31.05;12.52;;;;;;;10.46;100.00;102583.50;5221852;28;20025;-71
2021/10/14 07:19:58;;;;;;;33.72;13.10;;;;;;;10.52;100.00;102585.69;5220939;28;20057;-71
2021/10/14 07:22:29;;;;;;;33.78;11.50;;;;;;;10.62;100.00;102573.22;5236448;28;20037;-72
2021/10/14 07:24:59;;;;;;;25.88;12.30;;;;;;;10.69;100.00;102575.41;5221575;28;20021;-71
2021/10/14 07:27:30;;;;;;;26.30;12.18;;;;;;;10.69;100.00;102578.94;5220740;28;20401;-72
2021/10/14 07:30:00;;;;;;;29.13;12.02;;;;;;;10.70;100.00;102575.28;5218789;28;20174;-71
2021/10/14 07:32:31;;;;;;;25.23;10.70;;;;;;;10.72;100.00;102586.75;5220365;28;20065;-72
2021/10/14 07:35:04;;;;;;;23.98;10.93;;;;;;;10.73;100.00;102582.22;5220321;28;20029;-72
2021/10/14 07:37:35;;;;;;;23.00;11.15;;;;;;;10.73;100.00;102583.06;5220383;28;20025;-72
2021/10/14 07:40:06;;;;;;;22.45;11.18;;;;;;;10.76;100.00;102587.34;5219735;28;20127;-71
2021/10/14 07:42:37;;;;;;;28.67;12.13;;;;;;;10.70;100.00;102577.97;5219807;28;20033;-71
2021/10/14 07:45:07;;;;;;;27.35;12.02;;;;;;;10.61;100.00;102582.25;5221167;28;20055;-71
2021/10/14 07:47:38;;;;;;;22.17;10.75;;;;;;;10.58;100.00;102579.81;5219977;28;20096;-71
2021/10/14 07:50:09;;;;;;;24.63;11.30;;;;;;;10.59;100.00;102580.66;5219741;28;20038;-71
2021/10/14 07:52:42;;;;;;;28.00;12.50;;;;;;;10.56;100.00;102589.81;5220134;28;20036;-71
2021/10/14 07:55:12;;;;;;;27.20;12.10;;;;;;;10.55;100.00;102590.81;5219985;28;20036;-72
2021/10/14 07:57:44;;;;;;;28.55;11.82;;;;;;;10.54;100.00;102593.59;5220496;28;20017;-71
2021/10/14 08:00:14;;;;;;;31.42;12.40;;;;;;;10.59;100.00;102589.59;5215338;28;20369;-71
2021/10/14 08:02:45;;;;;;;27.48;11.57;;;;;;;10.63;100.00;102596.38;5213043;28;20040;-71
2021/10/14 08:05:17;;;;;;;28.83;12.50;;;;;;;10.69;100.00;102597.72;5218022;28;20140;-71
2021/10/14 08:07:48;;;;;;;26.23;12.05;;;;;;;10.75;100.00;102594.56;5220482;28;20453;-71
2021/10/14 08:10:18;;;;;;;28.85;11.70;;;;;;;10.82;100.00;102597.59;5219580;28;20081;-71
2021/10/14 08:12:48;;;;;;;26.83;11.63;;;;;;;10.89;100.00;102596.09;5220358;28;20449;-71
2021/10/14 08:15:19;;;;;;;28.50;12.57;;;;;;;10.92;100.00;102600.38;5220400;28;20033;-71
2021/10/14 08:17:50;;;;;;;23.52;11.60;;;;;;;10.96;100.00;102596.47;5220232;28;20043;-71
2021/10/14 08:20:20;;;;;;;29.25;12.95;;;;;;;11.05;100.00;102593.88;5219348;28;20397;-71
2021/10/14 08:22:51;;;;;;;25.48;13.23;;;;;;;11.12;100.00;102592.38;5219243;28;20039;-71
2021/10/14 08:25:21;;;;;;;31.40;13.18;;;;;;;11.19;100.00;102600.75;5220075;28;20508;-71
2021/10/14 08:27:51;;;;;;;34.88;12.90;;;;;;;11.26;100.00;102598.44;5219904;28;20096;-71
2021/10/14 08:30:22;;;;;;;27.65;11.63;;;;;;;11.33;100.00;102591.56;5219018;28;20403;-71
2021/10/14 08:32:54;;;;;;;23.63;11.27;;;;;;;11.40;100.00;102587.41;5219357;28;20108;-71
2021/10/14 08:35:24;;;;;;;26.58;11.77;;;;;;;11.36;100.00;102583.25;5219228;28;20604;-71
2021/10/14 08:37:57;;;;;;;22.30;11.70;;;;;;;11.47;100.00;102590.41;5219604;28;20193;-71
2021/10/14 08:40:27;;;;;;;30.05;13.00;;;;;;;11.49;100.00;102583.91;5219260;28;20028;-71
2021/10/14 08:43:00;;;;;;;29.33;12.30;;;;;;;11.63;100.00;102586.28;5218610;28;20367;-71
2021/10/14 08:45:37;;;;;;;28.00;11.30;;;;;;;11.72;100.00;102597.25;5219595;28;20183;-72
2021/10/14 08:48:08;;;;;;;20.08;10.93;;;;;;;11.74;100.00;102593.41;5219788;28;20450;-71
2021/10/14 08:50:41;;;;;;;27.30;10.68;;;;;;;11.76;100.00;102585.25;5219547;28;20024;-72
2021/10/14 08:53:13;;;;;;;24.50;11.68;;;;;;;11.71;100.00;102588.31;5219730;28;20105;-71
2021/10/14 08:55:44;;;;;;;25.08;11.40;;;;;;;11.82;100.00;102592.81;5220213;28;20329;-71
2021/10/14 08:58:15;;;;;;;24.70;10.82;;;;;;;11.91;100.00;102592.88;5219823;28;20124;-72
2021/10/14 09:01:11;;;;;;;28.48;11.55;;;;;;;12.00;100.00;102590.34;5214175;28;20102;-71
2021/10/14 09:03:47;;;;;;;26.63;10.75;;;;;;;12.12;100.00;102586.59;5217440;28;20070;-72
2021/10/14 09:06:18;;;;;;;25.65;10.50;;;;;;;12.22;100.00;102583.97;5219924;28;20025;-71
2021/10/14 09:08:51;;;;;;;21.92;10.07;;;;;;;12.27;100.00;102585.25;5219372;28;20117;-71
2021/10/14 09:11:28;;;;;;;21.23;10.95;;;;;;;12.37;100.00;102577.22;5219591;28;20490;-71
2021/10/14 09:14:03;;;;;;;22.50;9.75;;;;;;;12.51;100.00;102571.47;5219574;28;20029;-72
2021/10/14 09:16:36;;;;;;;18.45;9.65;;;;;;;12.53;100.00;102574.88;5219249;28;20029;-71
2021/10/14 09:19:18;;;;;;;19.98;10.18;;;;;;;12.50;100.00;102577.84;5218545;28;20508;-72
2021/10/14 09:21:51;;;;;;;20.42;9.60;;;;;;;12.62;100.00;102583.97;5206895;28;20562;-72
2021/10/14 09:24:33;;;;;;;19.20;9.65;;;;;;;12.68;100.00;102580.72;5217936;28;20090;-72
2021/10/14 09:27:07;;;;;;;19.55;9.15;;;;;;;12.64;100.00;102580.13;5219578;28;20065;-71
2021/10/14 09:29:39;;;;;;;20.37;9.40;;;;;;;12.64;100.00;102582.81;5219062;28;20107;-72
2021/10/14 09:32:15;;;;;;;23.40;10.23;;;;;;;12.64;100.00;102573.91;5223596;28;20271;-72
2021/10/14 09:34:46;;;;;;;;;;;;;;;12.80;100.00;102573.38;5211080;28;20021;-72
2021/10/14 09:37:16;;;;;;;18.25;8.90;;;;;;;12.86;100.00;102580.91;5222961;28;20185;-72
2021/10/14 09:40:06;;;;;;;19.33;9.80;;;;;;;12.98;100.00;102579.78;5254466;28;20497;-71
2021/10/14 09:42:59;;;;;;;21.90;8.85;;;;;;;12.90;100.00;102574.22;5223242;28;20039;-72
2021/10/14 09:45:32;;;;;;;20.55;9.75;;;;;;;13.05;100.00;102575.56;5221924;28;20020;-72
2021/10/14 09:48:02;;;;;;;26.65;9.65;;;;;;;13.12;100.00;102573.13;5222162;28;20145;-73
2021/10/14 09:50:35;;;;;;;14.55;8.80;;;;;;;13.41;100.00;102565.94;5221346;28;20052;-72
2021/10/14 09:53:10;;;;;;;20.27;9.60;;;;;;;13.60;100.00;102572.28;5222152;28;20102;-72
2021/10/14 09:55:42;;;;;;;15.37;8.70;;;;;;;13.79;100.00;102569.56;5220314;28;20036;-72
2021/10/14 09:58:12;;;;;;;14.95;8.32;;;;;;;13.80;100.00;102570.41;5221594;28;20273;-72
2021/10/14 10:00:45;;;;;;;19.55;9.85;;;;;;;13.66;100.00;102571.72;5221716;28;20474;-72
2021/10/14 10:03:18;;;;;;;29.92;9.18;;;;;;;13.59;100.00;102570.59;5222037;28;20470;-72
2021/10/14 10:05:51;;;;;;;16.50;9.43;;;;;;;13.54;100.00;102568.31;5222056;28;20083;-72
2021/10/14 10:08:29;;;;;;;20.35;8.73;;;;;;;13.51;100.00;102563.22;5221251;28;20043;-72
2021/10/14 10:11:03;;;;;;;19.15;9.25;;;;;;;13.38;100.00;102563.50;5221732;28;20031;-73
2021/10/14 10:13:38;;;;;;;19.25;9.73;;;;;;;13.43;100.00;102565.78;5219868;28;20424;-72
2021/10/14 10:16:17;;;;;;;13.38;7.93;;;;;;;13.55;100.00;102559.22;5219605;28;20285;-73
2021/10/14 10:18:49;;;;;;;17.67;8.85;;;;;;;13.49;100.00;102559.81;5219396;28;20369;-73
2021/10/14 10:21:29;;;;;;;17.35;8.60;;;;;;;13.58;100.00;102563.50;5219482;28;20029;-73
2021/10/14 10:24:01;;;;;;;20.00;8.82;;;;;;;13.62;100.00;102565.75;5220220;28;20383;-74
2021/10/14 10:26:38;;;;;;;18.90;8.48;;;;;;;13.65;100.00;102556.53;5220946;28;20033;-73
2021/10/14 10:29:13;;;;;;;20.58;8.23;;;;;;;13.73;100.00;102552.13;5219798;28;20041;-73
2021/10/14 10:31:48;;;;;;;15.02;7.78;;;;;;;13.78;100.00;102540.88;5221554;28;20028;-73
2021/10/14 10:34:31;;;;;;;15.05;8.43;;;;;;;13.81;100.00;102550.56;5220919;28;20178;-73
2021/10/14 10:37:17;;;;;;;16.40;9.48;;;;;;;13.89;100.00;102545.25;5222766;28;20414;-73
2021/10/14 10:39:50;;;;;;;16.52;8.20;;;;;;;13.86;100.00;102546.41;5209494;28;20033;-74
2021/10/14 10:42:38;;;;;;;14.13;7.80;;;;;;;13.83;100.00;102548.53;5215757;28;20029;-74
2021/10/14 10:45:14;;;;;;;20.27;8.68;;;;;;;13.87;100.00;102541.88;5213245;28;20486;-73
2021/10/14 10:47:47;;;;;;;17.73;7.88;;;;;;;13.85;100.00;102539.28;5221620;28;20052;-74
2021/10/14 10:50:22;;;;;;;15.30;7.63;;;;;;;13.86;100.00;102543.72;5220158;28;20094;-73
2021/10/14 10:53:12;;;;;;;18.10;8.23;;;;;;;13.79;100.00;102533.63;5220549;28;20024;-73
2021/10/14 10:55:44;;;;;;;16.08;7.40;;;;;;;13.81;100.00;102539.75;5221094;28;20267;-73
2021/10/14 10:58:36;;;;;;;16.35;7.68;;;;;;;13.77;100.00;102535.66;5218885;28;20056;-74
2021/10/14 11:01:06;;;;;;;14.27;7.80;;;;;;;13.73;100.00;102535.94;5220263;28;20112;-73
2021/10/14 11:03:39;;;;;;;14.00;7.55;;;;;;;13.85;100.00;102530.34;5218816;28;20130;-74
2021/10/14 11:06:10;;;;;;;18.92;8.30;;;;;;;13.85;100.00;102533.91;5221516;28;20096;-74
2021/10/14 11:08:40;;;;;;;14.18;7.28;;;;;;;13.89;100.00;102532.63;5221026;28;20437;-74
2021/10/14 11:11:17;;;;;;;11.93;7.50;;;;;;;13.94;100.00;102521.38;5222245;28;20063;-73
2021/10/14 11:13:50;;;;;;;18.70;8.80;;;;;;;13.90;100.00;102526.22;5210769;28;20024;-73
2021/10/14 11:16:25;;;;;;;16.77;7.32;;;;;;;13.91;100.00;102532.50;5221804;28;20517;-73
2021/10/14 11:18:56;;;;;;;15.95;7.03;;;;;;;13.89;100.00;102526.38;5221977;28;20024;-73
2021/10/14 11:21:27;;;;;;;14.98;7.45;;;;;;;13.97;100.00;102521.09;5222490;28;20103;-73
2021/10/14 11:23:59;;;;;;;13.45;7.55;;;;;;;14.03;100.00;102520.50;5222143;28;20037;-73
2021/10/14 11:26:35;;;;;;;16.58;7.10;;;;;;;13.86;100.00;102519.44;5221353;28;20036;-73
2021/10/14 11:29:11;;;;;;;15.52;7.70;;;;;;;13.95;100.00;102513.13;5221607;28;20028;-73
2021/10/14 11:31:47;;;;;;;24.33;7.97;;;;;;;13.95;100.00;102505.03;5221813;28;20021;-73
2021/10/14 11:34:20;;;;;;;15.77;7.93;;;;;;;13.99;100.00;102498.34;5220479;28;20088;-73